Time;durP1;ratioP1;P1;durP2;ratioP2;P2;SDS_P1;SDS_P2;PMS_P1;PMS_P2;Temp;Humidity;BMP_temperature;BMP_pressure;BME280_temperature;BME280_humidity;BME280_pressure;Samples;Min_cycle;Max_cycle;Signal;HPM_P1;HPM_P2
2022/04/17 00:03:01;;;;;;;4.17;3.13;;;;;;;;;;4978154;28;20538;-84
2022/04/17 00:06:06;;;;;;;3.40;2.90;;;;;;;;;;4966925;28;20601;-84
2022/04/17 00:09:11;;;;;;;6.83;3.33;;;;;;;;;;4956094;28;20605;-85
2022/04/17 00:12:15;;;;;;;5.47;2.97;;;;;;;;;;4967217;28;20559;-84
2022/04/17 00:15:20;;;;;;;5.73;3.20;;;;;;;;;;4966155;28;20543;-84
2022/04/17 00:18:23;;;;;;;4.97;3.73;;;;;;;;;;4966293;28;20871;-84
2022/04/17 00:21:27;;;;;;;3.53;2.97;;;;;;;;;;4966149;28;20535;-84
2022/04/17 00:24:32;;;;;;;4.40;2.90;;;;;;;;;;4977223;28;20543;-84
2022/04/17 00:27:39;;;;;;;5.10;3.43;;;;;;;;;;4977024;28;20554;-84
2022/04/17 00:30:42;;;;;;;3.77;3.00;;;;;;;;;;4954655;28;20649;-84
2022/04/17 00:33:47;;;;;;;5.33;3.40;;;;;;;;;;4977172;28;20613;-84
2022/04/17 00:36:51;;;;;;;5.23;3.43;;;;;;;;;;4965822;28;20554;-84
2022/04/17 00:39:55;;;;;;;5.77;3.60;;;;;;;;;;4965992;28;20625;-84
2022/04/17 00:42:59;;;;;;;3.63;3.33;;;;;;;;;;4965899;28;20550;-84
2022/04/17 00:46:03;;;;;;;5.03;3.53;;;;;;;;;;4965885;28;20543;-84
2022/04/17 00:49:07;;;;;;;5.20;3.33;;;;;;;;;;4965878;28;20879;-84
2022/04/17 00:52:12;;;;;;;4.67;3.00;;;;;;;;;;4966047;28;20531;-84
2022/04/17 00:55:16;;;;;;;7.50;3.17;;;;;;;;;;4977000;28;20551;-84
2022/04/17 00:58:21;;;;;;;3.77;2.90;;;;;;;;;;4954712;28;20558;-84
2022/04/17 01:01:25;;;;;;;3.80;3.10;;;;;;;;;;4954644;28;20539;-84
2022/04/17 01:04:29;;;;;;;5.53;3.20;;;;;;;;;;4977026;28;20895;-84
2022/04/17 01:07:33;;;;;;;5.93;3.10;;;;;;;;;;4976749;28;20558;-84
2022/04/17 01:10:38;;;;;;;4.50;3.20;;;;;;;;;;4965533;28;20656;-84
2022/04/17 01:13:42;;;;;;;4.47;3.23;;;;;;;;;;4976355;28;20558;-84
2022/04/17 01:16:47;;;;;;;4.03;3.00;;;;;;;;;;4976888;28;20883;-84
2022/04/17 01:19:51;;;;;;;3.63;3.00;;;;;;;;;;4965241;28;20646;-84
2022/04/17 01:26:55;;;;;;;3.30;2.90;;;;;;;;;;4954356;28;20562;-84
2022/04/17 01:29:42;;;;;;;4.63;3.30;;;;;;;;;;4965264;28;20938;-84
2022/04/17 01:32:47;;;;;;;5.07;3.40;;;;;;;;;;4954109;28;20609;-84
2022/04/17 01:35:51;;;;;;;4.30;3.27;;;;;;;;;;4965493;28;21141;-84
2022/04/17 01:38:55;;;;;;;4.03;3.13;;;;;;;;;;4965426;28;20547;-84
2022/04/17 01:42:00;;;;;;;3.93;2.87;;;;;;;;;;4976123;28;20531;-84
2022/04/17 01:45:05;;;;;;;5.13;3.13;;;;;;;;;;4965219;28;20539;-84
2022/04/17 01:48:08;;;;;;;6.83;3.27;;;;;;;;;;4976474;28;21086;-84
2022/04/17 01:51:13;;;;;;;4.17;2.80;;;;;;;;;;4953555;28;21219;-84
2022/04/17 01:54:21;;;;;;;6.17;2.93;;;;;;;;;;4976212;28;20547;-84
2022/04/17 01:57:26;;;;;;;3.57;2.73;;;;;;;;;;4975768;28;20555;-84
2022/04/17 02:00:30;;;;;;;4.27;3.07;;;;;;;;;;4964508;28;21164;-84
2022/04/17 02:03:34;;;;;;;3.73;3.17;;;;;;;;;;4975331;28;20542;-84
2022/04/17 02:06:39;;;;;;;5.63;2.90;;;;;;;;;;4964963;28;20551;-84
2022/04/17 02:09:44;;;;;;;4.00;2.80;;;;;;;;;;4975443;28;20629;-84
2022/04/17 02:12:48;;;;;;;4.77;3.20;;;;;;;;;;4964477;28;20614;-84
2022/04/17 02:15:53;;;;;;;5.23;3.50;;;;;;;;;;4975406;28;20606;-84
2022/04/17 02:18:58;;;;;;;4.37;3.00;;;;;;;;;;4964285;28;20598;-84
2022/04/17 02:22:03;;;;;;;4.13;2.77;;;;;;;;;;4953341;28;21082;-84
2022/04/17 02:25:07;;;;;;;3.97;3.17;;;;;;;;;;4953407;28;20543;-84
2022/04/17 02:28:15;;;;;;;3.60;2.80;;;;;;;;;;4953543;28;20551;-84
2022/04/17 02:31:19;;;;;;;4.27;2.97;;;;;;;;;;4963997;28;20645;-84
2022/04/17 02:34:23;;;;;;;4.23;3.00;;;;;;;;;;4964587;28;20543;-84
2022/04/17 02:37:28;;;;;;;3.70;3.13;;;;;;;;;;4964165;28;20558;-84
2022/04/17 02:40:32;;;;;;;4.43;3.43;;;;;;;;;;4964059;28;20621;-84
2022/04/17 02:43:36;;;;;;;5.83;3.30;;;;;;;;;;4964196;28;20559;-84
2022/04/17 02:50:04;;;;;;;3.10;2.70;;;;;;;;;;4963705;28;20629;-84
2022/04/17 02:53:08;;;;;;;5.40;3.03;;;;;;;;;;4974921;28;20563;-84
2022/04/17 02:56:12;;;;;;;6.60;3.03;;;;;;;;;;4975203;28;20546;-84
2022/04/17 02:59:16;;;;;;;4.10;3.10;;;;;;;;;;4975296;28;20546;-84
2022/04/17 03:05:43;;;;;;;3.53;3.07;;;;;;;;;;4975210;28;20543;-84
2022/04/17 03:08:47;;;;;;;4.70;2.93;;;;;;;;;;4964192;28;21069;-84
2022/04/17 03:11:51;;;;;;;5.97;3.50;;;;;;;;;;4952704;28;20657;-84
2022/04/17 03:14:55;;;;;;;4.73;3.00;;;;;;;;;;4974771;28;20602;-85
2022/04/17 03:18:00;;;;;;;4.10;3.70;;;;;;;;;;4963790;28;20547;-84
2022/04/17 03:21:04;;;;;;;3.83;3.30;;;;;;;;;;5008968;22;20680;-84
2022/04/17 03:24:08;;;;;;;5.53;3.53;;;;;;;;;;4995521;28;20533;-86
2022/04/17 03:27:13;;;;;;;3.93;3.10;;;;;;;;;;4983794;28;20919;-84
2022/04/17 03:30:17;;;;;;;3.73;3.40;;;;;;;;;;4994538;28;20617;-84
2022/04/17 03:33:21;;;;;;;4.50;3.60;;;;;;;;;;4983005;28;20877;-84
2022/04/17 03:36:26;;;;;;;3.83;3.47;;;;;;;;;;4996068;28;20545;-86
2022/04/17 03:39:31;;;;;;;4.93;3.27;;;;;;;;;;4972101;28;20542;-85
2022/04/17 03:42:35;;;;;;;6.60;3.80;;;;;;;;;;4973251;28;20550;-86
2022/04/17 03:45:39;;;;;;;3.70;3.10;;;;;;;;;;4972102;28;20886;-87
2022/04/17 03:48:43;;;;;;;3.87;3.13;;;;;;;;;;4983325;28;20553;-86
2022/04/17 03:51:48;;;;;;;4.27;3.60;;;;;;;;;;4983290;28;20652;-84
2022/04/17 03:54:52;;;;;;;4.37;3.40;;;;;;;;;;4983662;28;20545;-84
2022/04/17 03:57:56;;;;;;;3.93;3.00;;;;;;;;;;4971906;28;20549;-86
2022/04/17 04:01:00;;;;;;;4.27;3.07;;;;;;;;;;4982911;28;20613;-86
2022/04/17 04:04:06;;;;;;;3.87;3.37;;;;;;;;;;4984604;28;20546;-85
2022/04/17 04:07:10;;;;;;;3.60;3.17;;;;;;;;;;4982555;28;20557;-83
2022/04/17 04:10:15;;;;;;;5.40;3.07;;;;;;;;;;4971830;28;20542;-86
2022/04/17 04:13:19;;;;;;;3.90;3.07;;;;;;;;;;4983927;28;20550;-86
2022/04/17 04:16:23;;;;;;;5.97;3.50;;;;;;;;;;4982662;28;20545;-86
2022/04/17 04:19:27;;;;;;;3.97;2.93;;;;;;;;;;4983427;28;20533;-86
2022/04/17 04:22:32;;;;;;;3.37;3.07;;;;;;;;;;4984294;28;20546;-86
2022/04/17 04:25:36;;;;;;;5.07;3.07;;;;;;;;;;4985261;28;20549;-86
2022/04/17 04:28:40;;;;;;;3.60;3.10;;;;;;;;;;4999121;28;20557;-84
2022/04/17 04:31:44;;;;;;;4.87;3.20;;;;;;;;;;4986531;28;20996;-84
2022/04/17 04:34:49;;;;;;;4.73;3.20;;;;;;;;;;4976685;28;20549;-84
2022/04/17 04:37:53;;;;;;;4.53;3.37;;;;;;;;;;4986867;28;20549;-86
2022/04/17 04:40:59;;;;;;;6.67;3.33;;;;;;;;;;4987025;28;21190;-84
2022/04/17 04:44:03;;;;;;;3.67;3.27;;;;;;;;;;4985727;28;20542;-86
2022/04/17 04:47:07;;;;;;;3.60;3.10;;;;;;;;;;4998098;28;20545;-86
2022/04/17 04:50:11;;;;;;;4.03;3.20;;;;;;;;;;4986001;28;20553;-84
2022/04/17 04:53:15;;;;;;;4.10;3.50;;;;;;;;;;4974671;28;20537;-83
2022/04/17 04:56:20;;;;;;;4.77;3.07;;;;;;;;;;4985568;28;20538;-84
2022/04/17 04:59:23;;;;;;;4.10;3.07;;;;;;;;;;4986063;28;20537;-84
2022/04/17 05:02:27;;;;;;;4.60;3.43;;;;;;;;;;4997234;28;20538;-84
2022/04/17 05:05:33;;;;;;;4.27;3.20;;;;;;;;;;4976109;28;20885;-86
2022/04/17 05:08:37;;;;;;;3.37;3.07;;;;;;;;;;4986045;28;21084;-86
2022/04/17 05:11:41;;;;;;;5.03;3.17;;;;;;;;;;4990652;28;20653;-86
2022/04/17 05:14:45;;;;;;;5.70;3.30;;;;;;;;;;4986377;28;20600;-84
2022/04/17 05:17:49;;;;;;;3.53;3.00;;;;;;;;;;4986191;28;20538;-86
2022/04/17 05:20:55;;;;;;;3.40;2.70;;;;;;;;;;4973643;28;20637;-86
2022/04/17 05:23:59;;;;;;;3.87;2.77;;;;;;;;;;4996382;28;20542;-86
2022/04/17 05:27:04;;;;;;;4.50;3.10;;;;;;;;;;4974763;28;20546;-86
2022/04/17 05:30:08;;;;;;;3.80;3.17;;;;;;;;;;4974533;28;20542;-86
2022/04/17 05:33:16;;;;;;;5.00;4.00;;;;;;;;;;4985515;28;20530;-84
2022/04/17 05:36:21;;;;;;;8.53;4.90;;;;;;;;;;4984453;28;20597;-86
2022/04/17 05:39:25;;;;;;;5.93;3.90;;;;;;;;;;4984820;28;20546;-86
2022/04/17 05:42:29;;;;;;;6.57;4.00;;;;;;;;;;4996136;28;20608;-86
2022/04/17 05:45:34;;;;;;;5.17;4.00;;;;;;;;;;4984295;28;20961;-84
2022/04/17 05:48:38;;;;;;;4.30;3.33;;;;;;;;;;4985342;28;20598;-84
2022/04/17 05:51:42;;;;;;;4.73;3.40;;;;;;;;;;4965184;28;20657;-85
2022/04/17 05:54:46;;;;;;;5.13;3.47;;;;;;;;;;4965179;28;20942;-86
2022/04/17 05:57:50;;;;;;;5.63;3.20;;;;;;;;;;4988665;28;21236;-86
2022/04/17 06:00:55;;;;;;;3.27;2.40;;;;;;;;;;4969731;28;20646;-83
2022/04/17 06:04:02;;;;;;;3.37;2.37;;;;;;;;;;4970771;28;20606;-86
2022/04/17 06:07:06;;;;;;;4.43;2.80;;;;;;;;;;4972624;28;20594;-84
2022/04/17 06:10:12;;;;;;;4.17;2.60;;;;;;;;;;4974947;28;20586;-83
2022/04/17 06:13:16;;;;;;;3.67;2.30;;;;;;;;;;4964585;28;20650;-86
2022/04/17 06:16:20;;;;;;;4.80;2.70;;;;;;;;;;4966646;28;20622;-86
2022/04/17 06:19:25;;;;;;;3.33;2.70;;;;;;;;;;4973520;28;21061;-85
2022/04/17 06:22:29;;;;;;;2.80;2.40;;;;;;;;;;4964883;28;20547;-83
2022/04/17 06:25:33;;;;;;;3.43;2.60;;;;;;;;;;4964651;28;20538;-86
2022/04/17 06:28:38;;;;;;;2.37;2.17;;;;;;;;;;4974583;28;20575;-84
2022/04/17 06:31:45;;;;;;;3.83;2.60;;;;;;;;;;4964677;28;21195;-84
2022/04/17 06:34:49;;;;;;;3.43;2.37;;;;;;;;;;4964468;28;20538;-87
2022/04/17 06:37:54;;;;;;;5.73;2.73;;;;;;;;;;4964885;28;20633;-85
2022/04/17 06:40:58;;;;;;;3.97;2.40;;;;;;;;;;4964515;28;20958;-85
2022/04/17 06:44:03;;;;;;;5.60;2.40;;;;;;;;;;4964188;28;20603;-86
2022/04/17 06:47:06;;;;;;;4.33;2.27;;;;;;;;;;4976070;28;20190;-86
2022/04/17 06:50:12;;;;;;;3.77;1.97;;;;;;;;;;4994799;28;20665;-85
2022/04/17 06:53:16;;;;;;;3.20;2.40;;;;;;;;;;4959989;28;20222;-85
2022/04/17 06:56:20;;;;;;;3.57;2.07;;;;;;;;;;4955627;28;20210;-85
2022/04/17 06:59:24;;;;;;;4.17;2.40;;;;;;;;;;4969146;28;20539;-85
2022/04/17 07:02:28;;;;;;;2.77;2.00;;;;;;;;;;4970800;28;20182;-85
2022/04/17 07:05:33;;;;;;;2.77;2.03;;;;;;;;;;4990728;28;20186;-85
2022/04/17 07:08:37;;;;;;;2.70;2.10;;;;;;;;;;4988102;28;20189;-85
2022/04/17 07:11:41;;;;;;;4.43;2.40;;;;;;;;;;4984249;28;20230;-84
2022/04/17 07:14:47;;;;;;;4.80;2.20;;;;;;;;;;4972807;28;20543;-84
2022/04/17 07:17:53;;;;;;;3.33;2.13;;;;;;;;;;4963656;28;20637;-83
2022/04/17 07:20:57;;;;;;;4.30;2.20;;;;;;;;;;4986350;28;20265;-83
2022/04/17 07:24:02;;;;;;;2.67;2.00;;;;;;;;;;4969862;28;20545;-85
2022/04/17 07:27:07;;;;;;;4.43;2.27;;;;;;;;;;4963753;28;20508;-87
2022/04/17 07:30:26;;;;;;;2.30;2.10;;;;;;;;;;4964451;28;20191;-85
2022/04/17 07:33:30;;;;;;;2.97;2.13;;;;;;;;;;4964445;28;20571;-86
2022/04/17 07:36:35;;;;;;;2.37;2.17;;;;;;;;;;4975744;28;20179;-85
2022/04/17 07:39:39;;;;;;;3.77;2.33;;;;;;;;;;4963891;28;20202;-84
2022/04/17 07:42:43;;;;;;;3.93;2.50;;;;;;;;;;4974879;28;20175;-85
2022/04/17 07:45:47;;;;;;;3.10;2.30;;;;;;;;;;4960043;28;20191;-87
2022/04/17 07:48:52;;;;;;;4.13;2.00;;;;;;;;;;4963666;28;20179;-86
2022/04/17 07:51:56;;;;;;;4.67;2.03;;;;;;;;;;4963532;28;20223;-86
2022/04/17 07:55:02;;;;;;;2.80;2.00;;;;;;;;;;4975572;28;20202;-85
2022/04/17 07:58:12;;;;;;;2.20;1.80;;;;;;;;;;4964001;28;20183;-86
2022/04/17 08:01:16;;;;;;;2.63;1.97;;;;;;;;;;4969432;28;20705;-86
2022/04/17 08:04:20;;;;;;;3.53;2.13;;;;;;;;;;4957114;28;20182;-86
2022/04/17 08:07:24;;;;;;;3.47;2.23;;;;;;;;;;4956538;28;20187;-84
2022/04/17 08:10:28;;;;;;;4.63;2.20;;;;;;;;;;4978917;28;20223;-84
2022/04/17 08:13:33;;;;;;;3.03;2.23;;;;;;;;;;4956215;28;20222;-84
2022/04/17 08:16:37;;;;;;;4.20;2.00;;;;;;;;;;4967829;28;20198;-85
2022/04/17 08:19:41;;;;;;;2.63;2.13;;;;;;;;;;4957614;28;20175;-86
2022/04/17 08:22:46;;;;;;;3.90;2.00;;;;;;;;;;4969302;28;20175;-84
2022/04/17 08:25:50;;;;;;;3.63;1.90;;;;;;;;;;4969333;28;20195;-84
2022/04/17 08:28:54;;;;;;;3.13;1.87;;;;;;;;;;4974676;28;20182;-84
2022/04/17 08:31:59;;;;;;;2.60;1.70;;;;;;;;;;4963758;28;20230;-83
2022/04/17 08:35:05;;;;;;;3.80;1.80;;;;;;;;;;4957131;28;20654;-84
2022/04/17 08:38:09;;;;;;;2.70;2.10;;;;;;;;;;4995112;28;20202;-83
2022/04/17 08:41:15;;;;;;;4.80;2.17;;;;;;;;;;4978848;28;20252;-84
2022/04/17 08:44:23;;;;;;;3.33;2.20;;;;;;;;;;4971723;28;20179;-84
2022/04/17 08:47:28;;;;;;;3.47;1.90;;;;;;;;;;4974004;28;20195;-86
2022/04/17 08:50:32;;;;;;;3.37;2.17;;;;;;;;;;4955931;28;20215;-85
2022/04/17 08:53:39;;;;;;;3.00;2.33;;;;;;;;;;4955937;28;20674;-85
2022/04/17 08:56:43;;;;;;;2.33;1.80;;;;;;;;;;4961399;28;20530;-85
2022/04/17 08:59:48;;;;;;;3.73;1.87;;;;;;;;;;4967309;28;20179;-85
2022/04/17 09:02:52;;;;;;;4.07;2.03;;;;;;;;;;4973578;28;20186;-83
2022/04/17 09:05:56;;;;;;;3.60;1.80;;;;;;;;;;4975126;28;20539;-84
2022/04/17 09:09:03;;;;;;;3.27;1.90;;;;;;;;;;4978384;28;20195;-84
2022/04/17 09:12:08;;;;;;;2.10;1.70;;;;;;;;;;4967781;28;20231;-84
2022/04/17 09:15:13;;;;;;;6.17;2.13;;;;;;;;;;4965367;28;20190;-84
2022/04/17 09:18:19;;;;;;;3.83;2.10;;;;;;;;;;4969765;28;20199;-84
2022/04/17 09:21:32;;;;;;;3.87;1.80;;;;;;;;;;5010170;22;20230;-86
2022/04/17 09:24:39;;;;;;;2.40;1.83;;;;;;;;;;4973531;28;20645;-87
2022/04/17 09:27:54;;;;;;;2.93;1.43;;;;;;;;;;4984460;28;20179;-87
2022/04/17 09:31:01;;;;;;;1.53;1.40;;;;;;;;;;4981574;28;20227;-87
2022/04/17 09:34:09;;;;;;;2.40;1.70;;;;;;;;;;4953519;28;20214;-88
2022/04/17 09:37:18;;;;;;;2.73;2.03;;;;;;;;;;4953758;28;20646;-87
2022/04/17 09:40:23;;;;;;;3.17;1.80;;;;;;;;;;4962476;28;20195;-87
2022/04/17 09:43:32;;;;;;;4.00;2.00;;;;;;;;;;4952509;28;20203;-88
2022/04/17 09:46:36;;;;;;;2.73;2.00;;;;;;;;;;4964064;28;20685;-86
2022/04/17 09:49:51;;;;;;;2.77;2.10;;;;;;;;;;4952729;28;20206;-87
2022/04/17 09:52:56;;;;;;;2.73;1.97;;;;;;;;;;4934190;29;20560;-87
2022/04/17 09:56:08;;;;;;;3.30;2.10;;;;;;;;;;4945503;29;20183;-87
2022/04/17 09:59:16;;;;;;;2.20;1.87;;;;;;;;;;4956648;29;20180;-87
2022/04/17 10:02:23;;;;;;;2.50;1.93;;;;;;;;;;4956527;28;20219;-86
2022/04/17 10:05:27;;;;;;;2.20;2.00;;;;;;;;;;4934825;29;20524;-87
2022/04/17 10:08:32;;;;;;;2.80;2.20;;;;;;;;;;4945506;29;20187;-87
2022/04/17 10:11:37;;;;;;;3.77;2.27;;;;;;;;;;4956421;28;20223;-87
2022/04/17 10:14:42;;;;;;;3.73;2.07;;;;;;;;;;4967452;28;20175;-87
2022/04/17 10:17:47;;;;;;;3.40;2.33;;;;;;;;;;4945314;29;20183;-87
2022/04/17 10:20:51;;;;;;;2.53;2.00;;;;;;;;;;4944764;28;20227;-87
2022/04/17 10:24:04;;;;;;;3.67;1.87;;;;;;;;;;4933818;29;20175;-87
2022/04/17 10:27:14;;;;;;;3.50;2.10;;;;;;;;;;4956133;28;20659;-87
2022/04/17 10:30:25;;;;;;;2.20;1.90;;;;;;;;;;4944984;28;20180;-87
2022/04/17 10:33:41;;;;;;;3.80;2.23;;;;;;;;;;4955758;28;20219;-87
2022/04/17 10:37:04;;;;;;;6.20;2.20;;;;;;;;;;4956240;29;20184;-87
2022/04/17 10:40:10;;;;;;;3.10;2.43;;;;;;;;;;4934249;29;20512;-87
2022/04/17 10:43:14;;;;;;;3.23;1.87;;;;;;;;;;4944579;29;20183;-87
2022/04/17 10:46:20;;;;;;;3.20;2.30;;;;;;;;;;4933997;29;20183;-86
2022/04/17 10:49:29;;;;;;;4.07;2.37;;;;;;;;;;4944700;29;20180;-86
2022/04/17 10:52:37;;;;;;;3.30;2.13;;;;;;;;;;4955053;28;20223;-86
2022/04/17 10:56:10;;;;;;;3.50;2.27;;;;;;;;;;4944535;29;20175;-86
2022/04/17 10:59:16;;;;;;;3.90;2.30;;;;;;;;;;4933629;29;20188;-87
2022/04/17 11:02:20;;;;;;;2.30;2.00;;;;;;;;;;4933357;29;20701;-86
2022/04/17 11:09:12;;;;;;;2.50;2.10;;;;;;;;;;4955753;29;20187;-87
2022/04/17 11:12:22;;;;;;;2.70;2.10;;;;;;;;;;4955179;28;20219;-86
2022/04/17 11:15:28;;;;;;;6.13;1.93;;;;;;;;;;4933428;29;20176;-86
2022/04/17 11:18:33;;;;;;;4.23;2.20;;;;;;;;;;4955132;28;20203;-87
2022/04/17 11:21:41;;;;;;;2.63;2.23;;;;;;;;;;4932884;29;20234;-86
2022/04/17 11:24:54;;;;;;;3.10;2.17;;;;;;;;;;4966274;28;20180;-86
2022/04/17 11:28:02;;;;;;;4.03;2.03;;;;;;;;;;4954995;29;20626;-87
2022/04/17 11:31:07;;;;;;;2.80;1.93;;;;;;;;;;4933000;28;20222;-87
2022/04/17 11:34:11;;;;;;;3.43;1.90;;;;;;;;;;4944046;28;20215;-87
2022/04/17 11:37:22;;;;;;;4.13;2.00;;;;;;;;;;4958961;28;20187;-86
2022/04/17 11:40:28;;;;;;;3.97;2.33;;;;;;;;;;4959075;28;20195;-86
2022/04/17 11:43:32;;;;;;;2.67;2.00;;;;;;;;;;4936892;29;20179;-86
2022/04/17 11:46:36;;;;;;;2.90;2.10;;;;;;;;;;4948090;29;20179;-86
2022/04/17 11:49:41;;;;;;;7.07;4.93;;;;;;;;;;4948019;29;20187;-86
2022/04/17 11:52:50;;;;;;;12.30;7.80;;;;;;;;;;4936472;29;20175;-86
2022/04/17 11:55:55;;;;;;;18.17;8.20;;;;;;;;;;4936877;29;20180;-86
2022/04/17 11:59:03;;;;;;;35.97;20.03;;;;;;;;;;4936558;29;20253;-86
2022/04/17 12:02:16;;;;;;;18.27;8.93;;;;;;;;;;4936582;29;20222;-86
2022/04/17 12:05:20;;;;;;;4.10;2.63;;;;;;;;;;4947445;29;20194;-86
2022/04/17 12:08:32;;;;;;;3.73;2.63;;;;;;;;;;4958839;29;20183;-86
2022/04/17 12:11:39;;;;;;;3.80;2.40;;;;;;;;;;4936726;29;20262;-86
2022/04/17 12:14:45;;;;;;;3.53;2.30;;;;;;;;;;4936410;29;20203;-86
2022/04/17 12:17:58;;;;;;;3.37;2.50;;;;;;;;;;4970180;28;20624;-86
2022/04/17 12:21:06;;;;;;;4.40;2.10;;;;;;;;;;4946980;28;20235;-86
2022/04/17 12:24:10;;;;;;;4.23;2.30;;;;;;;;;;4936424;29;20183;-86
2022/04/17 12:27:23;;;;;;;3.63;2.17;;;;;;;;;;4947092;29;20183;-86
2022/04/17 12:30:28;;;;;;;3.37;2.20;;;;;;;;;;4947146;28;20180;-86
2022/04/17 12:33:32;;;;;;;2.30;2.00;;;;;;;;;;4936006;29;20211;-86
2022/04/17 12:36:42;;;;;;;4.13;2.10;;;;;;;;;;4935983;29;20183;-86
2022/04/17 12:39:46;;;;;;;2.53;1.93;;;;;;;;;;4947347;29;20184;-86
2022/04/17 12:42:50;;;;;;;2.50;1.87;;;;;;;;;;4935720;29;20203;-86
2022/04/17 12:46:04;;;;;;;3.27;2.20;;;;;;;;;;4935853;28;20176;-86
2022/04/17 12:49:14;;;;;;;2.37;2.07;;;;;;;;;;4935891;29;20195;-86
2022/04/17 12:52:21;;;;;;;2.10;1.90;;;;;;;;;;4935461;29;20223;-86
2022/04/17 12:55:34;;;;;;;2.37;2.07;;;;;;;;;;4935795;29;20187;-86
2022/04/17 12:59:02;;;;;;;4.20;2.33;;;;;;;;;;4935441;29;20183;-86
2022/04/17 13:02:14;;;;;;;3.77;2.20;;;;;;;;;;4935385;29;20215;-86
2022/04/17 13:05:23;;;;;;;2.70;2.10;;;;;;;;;;4946258;29;20195;-86
2022/04/17 13:08:28;;;;;;;2.53;2.03;;;;;;;;;;4935892;29;20531;-86
2022/04/17 13:11:33;;;;;;;3.13;1.93;;;;;;;;;;4957226;28;20219;-86
2022/04/17 13:14:54;;;;;;;2.80;1.87;;;;;;;;;;4968265;28;20211;-86
2022/04/17 13:17:59;;;;;;;2.80;1.60;;;;;;;;;;4946317;29;20183;-86
2022/04/17 13:21:03;;;;;;;2.00;1.70;;;;;;;;;;4935269;28;20227;-86
2022/04/17 13:24:13;;;;;;;2.70;1.60;;;;;;;;;;4956935;29;20524;-86
2022/04/17 13:27:18;;;;;;;3.37;1.80;;;;;;;;;;4935566;29;20638;-86
2022/04/17 13:30:22;;;;;;;2.23;1.90;;;;;;;;;;4945982;28;20179;-87
2022/04/17 13:33:26;;;;;;;3.37;2.40;;;;;;;;;;4945827;29;20187;-87
2022/04/17 13:36:30;;;;;;;3.10;2.03;;;;;;;;;;4956819;29;20180;-87
2022/04/17 13:39:34;;;;;;;2.10;1.83;;;;;;;;;;4957042;28;20180;-87
2022/04/17 13:42:39;;;;;;;2.10;1.80;;;;;;;;;;4934894;29;20215;-87
2022/04/17 13:45:43;;;;;;;2.20;1.90;;;;;;;;;;4935296;29;20179;-87
2022/04/17 13:48:47;;;;;;;4.37;2.30;;;;;;;;;;4945676;29;20183;-87
2022/04/17 13:51:53;;;;;;;2.90;1.63;;;;;;;;;;4956701;28;20223;-87
2022/04/17 13:54:58;;;;;;;3.73;1.97;;;;;;;;;;4967648;28;20212;-87
2022/04/17 13:58:03;;;;;;;3.20;2.00;;;;;;;;;;4944603;29;20638;-87
2022/04/17 14:01:07;;;;;;;2.63;1.83;;;;;;;;;;4956208;28;20219;-87
2022/04/17 14:04:11;;;;;;;2.30;1.63;;;;;;;;;;4935111;29;20179;-87
2022/04/17 14:07:15;;;;;;;2.70;1.40;;;;;;;;;;4934681;29;20179;-87
2022/04/17 14:10:19;;;;;;;2.30;1.73;;;;;;;;;;4945518;28;20188;-87
2022/04/17 14:13:23;;;;;;;2.07;1.40;;;;;;;;;;4934063;29;20545;-87
2022/04/17 14:16:27;;;;;;;2.90;1.60;;;;;;;;;;4956307;28;20544;-87
2022/04/17 14:19:32;;;;;;;5.73;2.30;;;;;;;;;;4945180;29;20179;-87
2022/04/17 14:22:35;;;;;;;1.80;1.53;;;;;;;;;;4944779;29;20227;-87
2022/04/17 14:25:40;;;;;;;3.87;2.00;;;;;;;;;;4933989;29;20658;-87
2022/04/17 14:28:44;;;;;;;3.67;1.50;;;;;;;;;;4956535;29;20640;-87
2022/04/17 14:31:49;;;;;;;3.00;1.80;;;;;;;;;;4934212;29;20227;-87
2022/04/17 14:34:52;;;;;;;2.03;1.40;;;;;;;;;;4955611;29;20678;-87
2022/04/17 14:37:57;;;;;;;6.57;1.60;;;;;;;;;;4944774;29;20526;-87
2022/04/17 14:41:01;;;;;;;3.40;1.80;;;;;;;;;;4944745;28;20222;-87
2022/04/17 14:44:06;;;;;;;2.20;1.63;;;;;;;;;;4933481;29;20172;-87
2022/04/17 14:47:10;;;;;;;4.40;1.70;;;;;;;;;;4933882;29;20516;-87
2022/04/17 14:50:14;;;;;;;2.47;1.90;;;;;;;;;;4944859;29;20552;-87
2022/04/17 14:53:18;;;;;;;2.03;1.47;;;;;;;;;;4955674;29;20180;-87
2022/04/17 14:56:22;;;;;;;2.97;1.67;;;;;;;;;;4944781;29;20183;-87
2022/04/17 14:59:27;;;;;;;2.37;1.57;;;;;;;;;;4933851;29;20192;-87
2022/04/17 15:02:31;;;;;;;1.83;1.57;;;;;;;;;;4944226;29;20587;-87
2022/04/17 15:05:35;;;;;;;1.80;1.20;;;;;;;;;;4943409;28;20191;-87
2022/04/17 15:08:39;;;;;;;4.10;1.70;;;;;;;;;;4962573;28;20194;-87
2022/04/17 15:11:44;;;;;;;2.97;1.80;;;;;;;;;;4953635;28;20218;-87
2022/04/17 15:14:48;;;;;;;1.90;1.53;;;;;;;;;;4964689;28;20207;-87
2022/04/17 15:17:52;;;;;;;2.10;1.50;;;;;;;;;;4962704;28;20183;-87
2022/04/17 15:20:56;;;;;;;2.60;1.57;;;;;;;;;;4987307;23;20575;-88
2022/04/17 15:24:00;;;;;;;1.63;1.37;;;;;;;;;;4975690;28;20573;-87
2022/04/17 15:27:06;;;;;;;2.13;1.47;;;;;;;;;;4963850;28;20526;-86
2022/04/17 15:30:11;;;;;;;3.97;1.60;;;;;;;;;;4954142;28;20673;-87
2022/04/17 15:33:15;;;;;;;2.13;1.30;;;;;;;;;;4956202;29;20187;-86
2022/04/17 15:36:19;;;;;;;2.80;1.50;;;;;;;;;;4946601;29;20180;-86
2022/04/17 15:39:23;;;;;;;3.13;1.60;;;;;;;;;;4932678;29;20200;-87
2022/04/17 15:42:30;;;;;;;1.67;1.50;;;;;;;;;;4946501;29;20223;-85
2022/04/17 15:48:57;;;;;;;2.53;1.97;;;;;;;;;;4964588;28;20195;-86
2022/04/17 15:52:02;;;;;;;2.07;1.40;;;;;;;;;;4969164;28;20239;-85
2022/04/17 15:55:06;;;;;;;5.63;1.60;;;;;;;;;;4955894;29;20239;-84
2022/04/17 15:58:10;;;;;;;3.33;1.50;;;;;;;;;;4925063;29;20542;-85
2022/04/17 16:01:14;;;;;;;2.07;1.60;;;;;;;;;;4931308;28;20223;-86
2022/04/17 16:04:18;;;;;;;1.73;1.33;;;;;;;;;;4945829;29;20172;-86
2022/04/17 16:07:23;;;;;;;3.90;1.70;;;;;;;;;;4928042;29;20533;-86
2022/04/17 16:10:27;;;;;;;5.63;1.37;;;;;;;;;;4914566;29;20199;-86
2022/04/17 16:13:31;;;;;;;1.63;1.30;;;;;;;;;;4925660;29;20192;-86
2022/04/17 16:16:35;;;;;;;2.43;1.40;;;;;;;;;;4925297;29;20176;-84
2022/04/17 16:19:39;;;;;;;2.77;1.60;;;;;;;;;;4925724;29;20214;-84
2022/04/17 16:22:43;;;;;;;6.37;1.90;;;;;;;;;;4938813;28;20230;-88
2022/04/17 16:25:47;;;;;;;1.87;1.30;;;;;;;;;;4947918;29;20187;-86
2022/04/17 16:28:51;;;;;;;3.53;2.17;;;;;;;;;;4947787;29;20531;-87
2022/04/17 16:31:55;;;;;;;7.17;4.47;;;;;;;;;;4936128;29;20215;-86
2022/04/17 16:35:00;;;;;;;4.73;2.67;;;;;;;;;;4946792;29;20215;-86
2022/04/17 16:38:04;;;;;;;3.13;2.20;;;;;;;;;;4935858;29;20631;-86
2022/04/17 16:41:09;;;;;;;3.07;1.60;;;;;;;;;;4946968;28;20231;-85
2022/04/17 16:44:14;;;;;;;2.73;1.70;;;;;;;;;;4946932;29;20188;-86
2022/04/17 16:47:19;;;;;;;3.73;1.63;;;;;;;;;;4936194;29;20187;-86
2022/04/17 16:50:23;;;;;;;2.10;1.40;;;;;;;;;;4946627;29;20535;-86
2022/04/17 16:53:27;;;;;;;3.00;1.73;;;;;;;;;;4947250;29;20195;-86
2022/04/17 16:56:32;;;;;;;2.77;1.70;;;;;;;;;;4947194;29;20203;-86
2022/04/17 16:59:36;;;;;;;2.93;1.50;;;;;;;;;;4946788;29;20191;-86
2022/04/17 17:02:40;;;;;;;2.60;1.43;;;;;;;;;;4948347;29;20698;-85
2022/04/17 17:05:44;;;;;;;1.83;1.50;;;;;;;;;;4935027;29;20195;-86
2022/04/17 17:08:48;;;;;;;3.77;1.80;;;;;;;;;;4946170;29;20188;-86
2022/04/17 17:11:52;;;;;;;2.13;1.30;;;;;;;;;;4935600;29;20223;-86
2022/04/17 17:14:56;;;;;;;2.40;1.50;;;;;;;;;;4933485;29;20203;-86
2022/04/17 17:18:01;;;;;;;2.87;1.40;;;;;;;;;;4935475;29;20187;-86
2022/04/17 17:21:06;;;;;;;2.73;1.83;;;;;;;;;;4934938;28;20179;-86
2022/04/17 17:24:10;;;;;;;3.60;1.80;;;;;;;;;;4934319;29;20211;-86
2022/04/17 17:27:15;;;;;;;4.80;1.97;;;;;;;;;;4938530;29;20180;-86
2022/04/17 17:30:18;;;;;;;3.03;1.30;;;;;;;;;;4939923;29;20195;-85
2022/04/17 17:33:23;;;;;;;1.77;1.43;;;;;;;;;;4934769;29;20192;-86
2022/04/17 17:36:27;;;;;;;3.13;1.30;;;;;;;;;;4947567;29;20207;-86
2022/04/17 17:39:33;;;;;;;2.53;1.50;;;;;;;;;;4939761;29;20532;-86
2022/04/17 17:42:37;;;;;;;2.03;1.40;;;;;;;;;;4937487;29;20223;-86
2022/04/17 17:45:41;;;;;;;1.93;1.50;;;;;;;;;;4937051;29;20200;-85
2022/04/17 17:48:46;;;;;;;2.03;1.40;;;;;;;;;;4927677;29;20208;-86
2022/04/17 17:51:50;;;;;;;2.10;1.40;;;;;;;;;;4927451;29;20220;-86
2022/04/17 17:55:02;;;;;;;3.00;1.10;;;;;;;;;;4938402;29;20216;-86
2022/04/17 17:58:07;;;;;;;1.47;1.30;;;;;;;;;;4939976;29;20195;-86
2022/04/17 18:01:12;;;;;;;2.77;1.20;;;;;;;;;;4945645;28;20223;-86
2022/04/17 18:04:16;;;;;;;2.13;1.20;;;;;;;;;;4946701;29;20191;-85
2022/04/17 18:14:30;;;;;;;4.27;1.03;;;;;;;;;;4957213;29;20192;-84
2022/04/17 18:17:33;;;;;;;3.33;1.60;;;;;;;;;;4944230;29;20192;-85
2022/04/17 18:20:42;;;;;;;2.60;1.50;;;;;;;;;;4933858;29;20196;-85
2022/04/17 18:23:46;;;;;;;5.03;1.30;;;;;;;;;;4945073;29;20188;-84
2022/04/17 18:26:52;;;;;;;5.50;1.33;;;;;;;;;;4945645;29;20183;-85
2022/04/17 18:29:56;;;;;;;3.43;1.10;;;;;;;;;;4956828;29;20176;-85
2022/04/17 18:33:01;;;;;;;3.23;1.30;;;;;;;;;;4933403;29;20223;-84
2022/04/17 18:36:06;;;;;;;2.43;1.50;;;;;;;;;;4944838;29;20211;-85
2022/04/17 18:39:10;;;;;;;2.37;1.20;;;;;;;;;;4944873;29;20631;-85
2022/04/17 18:42:14;;;;;;;1.40;1.30;;;;;;;;;;4955363;28;20219;-84
2022/04/17 18:45:18;;;;;;;2.17;1.30;;;;;;;;;;4933531;29;20179;-85
2022/04/17 18:48:22;;;;;;;1.97;1.20;;;;;;;;;;4944718;29;20187;-84
2022/04/17 18:51:26;;;;;;;2.90;1.40;;;;;;;;;;4933236;28;20223;-85
2022/04/17 18:54:31;;;;;;;2.17;1.40;;;;;;;;;;4933568;29;20516;-84
2022/04/17 18:57:35;;;;;;;2.97;1.40;;;;;;;;;;4944469;29;20180;-85